Time;durP1;ratioP1;P1;durP2;ratioP2;P2;SDS_P1;SDS_P2;PMS_P1;PMS_P2;Temp;Humidity;BMP_temperature;BMP_pressure;BME280_temperature;BME280_humidity;BME280_pressure;Samples;Min_cycle;Max_cycle;Signal;HPM_P1;HPM_P2
2022/04/27 00:01:15;;;;;;;;;;;17.30;89.70;;;;;;5052892;28;20004;-71
2022/04/27 00:03:41;;;;;;;;;;;17.10;90.00;;;;;;5051185;28;19998;-70
2022/04/27 00:06:08;;;;;;;;;;;17.20;89.80;;;;;;5050996;28;19986;-72
2022/04/27 00:08:34;;;;;;;;;;;17.30;89.60;;;;;;5052420;28;19913;-72
2022/04/27 00:11:00;;;;;;;;;;;17.30;89.40;;;;;;5052794;28;20008;-71
2022/04/27 00:13:26;;;;;;;;;;;17.40;89.80;;;;;;5052400;28;19909;-71
2022/04/27 00:15:51;;;;;;;;;;;17.40;90.00;;;;;;5052308;28;20007;-72
2022/04/27 00:18:17;;;;;;;;;;;17.40;90.10;;;;;;5050492;28;19930;-71
2022/04/27 00:20:43;;;;;;;;;;;17.40;90.00;;;;;;5052276;28;19957;-72
2022/04/27 00:23:09;;;;;;;;;;;17.30;90.20;;;;;;5050781;28;20305;-71
2022/04/27 00:25:35;;;;;;;;;;;17.30;90.20;;;;;;5052205;28;19908;-72
2022/04/27 00:28:01;;;;;;;;;;;17.20;90.30;;;;;;5052151;28;19913;-72
2022/04/27 00:30:27;;;;;;;;;;;17.30;90.40;;;;;;5052047;28;19995;-71
2022/04/27 00:32:52;;;;;;;;;;;17.30;90.40;;;;;;5050434;28;20280;-70
2022/04/27 00:35:18;;;;;;;;;;;17.30;90.40;;;;;;5050092;28;19920;-72
2022/04/27 00:37:44;;;;;;;;;;;17.40;90.30;;;;;;5050453;28;19956;-71
2022/04/27 00:40:10;;;;;;;;;;;17.40;90.30;;;;;;5052363;28;20274;-71
2022/04/27 00:45:39;;;;;;;;;;;17.50;90.30;;;;;;5051630;28;19920;-68
2022/04/27 00:48:05;;;;;;;;;;;17.40;90.30;;;;;;5051592;28;19917;-72
2022/04/27 00:50:31;;;;;;;;;;;17.40;90.40;;;;;;5051435;28;20007;-71
2022/04/27 00:52:57;;;;;;;;;;;17.40;90.40;;;;;;5051564;28;19996;-71
2022/04/27 00:55:23;;;;;;;;;;;17.40;90.40;;;;;;5051253;28;20004;-70
2022/04/27 01:00:53;;;;;;;;;;;17.30;90.60;;;;;;5051175;28;19967;-70
2022/04/27 01:03:19;;;;;;;;;;;17.30;90.60;;;;;;5049841;28;19995;-70
2022/04/27 01:05:46;;;;;;;;;;;17.20;90.70;;;;;;5049762;28;19916;-70
2022/04/27 01:08:13;;;;;;;;;;;17.20;90.70;;;;;;5051381;28;20000;-70
2022/04/27 01:10:39;;;;;;;;;;;17.20;90.80;;;;;;5051250;28;20023;-71
2022/04/27 01:13:05;;;;;;;;;;;17.10;90.80;;;;;;5051117;28;19912;-70
2022/04/27 01:15:35;;;;;;;;;;;17.10;90.80;;;;;;5051260;28;19944;-71
2022/04/27 01:18:03;;;;;;;;;;;17.10;90.80;;;;;;5050942;28;19908;-70
2022/04/27 01:20:50;;;;;;;;;;;17.10;90.80;;;;;;5050335;28;19909;-71
2022/04/27 01:23:17;;;;;;;;;;;17.00;91.00;;;;;;5049465;28;20345;-70
2022/04/27 01:25:56;;;;;;;;;;;17.00;90.90;;;;;;5050770;28;19944;-71
2022/04/27 01:28:24;;;;;;;;;;;17.00;90.90;;;;;;5050726;28;19913;-70
2022/04/27 01:30:57;;;;;;;;;;;17.10;90.80;;;;;;5050948;28;20337;-69
2022/04/27 01:33:23;;;;;;;;;;;17.10;90.70;;;;;;5050886;28;19909;-71
2022/04/27 01:35:48;;;;;;;;;;;17.10;90.70;;;;;;5050710;28;19925;-70
2022/04/27 01:38:16;;;;;;;;;;;17.00;90.80;;;;;;5050913;28;19913;-71
2022/04/27 01:43:45;;;;;;;;;;;17.10;90.50;;;;;;5051188;28;19970;-71
2022/04/27 01:46:11;;;;;;;;;;;17.10;90.40;;;;;;5050480;28;20275;-71
2022/04/27 01:48:52;;;;;;;;;;;17.10;90.40;;;;;;5050346;28;19908;-71
2022/04/27 01:51:18;;;;;;;;;;;17.00;90.50;;;;;;5050812;28;20282;-71
2022/04/27 01:56:29;;;;;;;;;;;16.90;90.60;;;;;;5050937;28;20264;-71
2022/04/27 01:59:10;;;;;;;;;;;16.90;90.60;;;;;;5051053;28;19909;-71
2022/04/27 02:01:36;;;;;;;;;;;16.90;90.60;;;;;;5050401;28;20380;-70
2022/04/27 02:04:02;;;;;;;;;;;16.90;90.60;;;;;;5050595;28;19921;-70
2022/04/27 02:06:50;;;;;;;;;;;16.90;90.60;;;;;;5050321;28;20264;-71
2022/04/27 02:09:15;;;;;;;;;;;16.90;90.60;;;;;;5051918;28;20034;-71
2022/04/27 02:11:41;;;;;;;;;;;16.80;90.80;;;;;;5054271;28;20030;-71
2022/04/27 02:14:07;;;;;;;;;;;16.60;91.00;;;;;;5052933;28;19909;-71
2022/04/27 02:16:33;;;;;;;;;;;16.60;91.10;;;;;;5054461;28;19909;-70
2022/04/27 02:18:59;;;;;;;;;;;16.50;91.20;;;;;;5054026;28;19957;-71
2022/04/27 02:21:25;;;;;;;;;;;16.60;91.30;;;;;;5053552;28;19909;-70
2022/04/27 02:23:51;;;;;;;;;;;16.50;91.40;;;;;;5054094;28;19909;-69
2022/04/27 02:26:17;;;;;;;;;;;16.50;91.50;;;;;;5054227;28;20365;-70
2022/04/27 02:28:52;;;;;;;;;;;16.50;91.50;;;;;;5052574;28;19912;-70
2022/04/27 02:31:18;;;;;;;;;;;16.40;91.50;;;;;;5052764;28;19957;-71
2022/04/27 02:33:44;;;;;;;;;;;16.40;91.60;;;;;;5054032;28;19913;-71
2022/04/27 02:36:10;;;;;;;;;;;16.50;91.50;;;;;;5053804;28;19925;-69
2022/04/27 02:38:35;;;;;;;;;;;16.50;91.50;;;;;;5053904;28;20436;-71
2022/04/27 02:41:03;;;;;;;;;;;16.60;91.50;;;;;;5053758;28;20000;-70
2022/04/27 02:43:29;;;;;;;;;;;16.60;91.60;;;;;;5053846;28;19970;-71
2022/04/27 02:45:55;;;;;;;;;;;16.60;91.50;;;;;;5053393;28;19916;-70
2022/04/27 02:48:21;;;;;;;;;;;16.60;91.50;;;;;;5053634;28;20359;-71
2022/04/27 02:53:31;;;;;;;;;;;16.70;91.40;;;;;;5053511;28;20258;-71
2022/04/27 02:55:56;;;;;;;;;;;16.70;91.40;;;;;;5053441;28;19908;-70
2022/04/27 02:58:23;;;;;;;;;;;16.80;91.40;;;;;;5053688;28;19919;-70
2022/04/27 03:00:49;;;;;;;;;;;16.70;91.40;;;;;;5053569;28;20272;-70
2022/04/27 03:03:14;;;;;;;;;;;16.70;91.50;;;;;;5053892;28;20004;-70
2022/04/27 03:05:52;;;;;;;;;;;16.60;91.60;;;;;;5053251;28;19999;-70
2022/04/27 03:08:18;;;;;;;;;;;16.60;91.60;;;;;;5052085;28;19921;-71
2022/04/27 03:10:46;;;;;;;;;;;16.60;91.70;;;;;;5053390;28;19908;-71
2022/04/27 03:13:12;;;;;;;;;;;16.60;91.60;;;;;;5051777;28;20348;-71
2022/04/27 03:15:37;;;;;;;;;;;16.60;91.70;;;;;;5053627;28;19916;-71
2022/04/27 03:18:21;;;;;;;;;;;16.60;91.70;;;;;;5053183;28;19909;-71
2022/04/27 03:20:50;;;;;;;;;;;16.50;91.70;;;;;;5052678;28;19909;-71
2022/04/27 03:23:19;;;;;;;;;;;16.50;91.70;;;;;;5053209;28;19908;-71
2022/04/27 03:25:51;;;;;;;;;;;16.40;91.90;;;;;;5054485;28;19909;-71
2022/04/27 03:28:18;;;;;;;;;;;16.30;91.90;;;;;;5054253;28;19913;-70
2022/04/27 03:30:44;;;;;;;;;;;16.30;91.90;;;;;;5054823;28;19909;-70
2022/04/27 03:33:10;;;;;;;;;;;16.30;91.90;;;;;;5054371;28;20357;-70
2022/04/27 03:35:36;;;;;;;;;;;16.30;91.90;;;;;;5053998;28;20325;-71
2022/04/27 03:38:03;;;;;;;;;;;16.20;91.80;;;;;;5054414;28;19909;-71
2022/04/27 03:40:29;;;;;;;;;;;16.20;92.00;;;;;;5052552;28;19954;-70
2022/04/27 03:42:55;;;;;;;;;;;16.20;92.00;;;;;;5054019;28;19956;-71
2022/04/27 03:45:21;;;;;;;;;;;16.30;92.00;;;;;;5054527;28;20011;-70
2022/04/27 03:47:47;;;;;;;;;;;16.30;92.00;;;;;;5054106;28;19916;-70
2022/04/27 03:50:13;;;;;;;;;;;16.30;92.00;;;;;;5054118;28;19909;-71
2022/04/27 03:52:39;;;;;;;;;;;16.30;92.10;;;;;;5054236;28;20360;-71
2022/04/27 03:55:04;;;;;;;;;;;16.20;92.10;;;;;;5054152;28;20273;-71
2022/04/27 03:57:30;;;;;;;;;;;16.10;92.20;;;;;;5054173;28;19912;-70
2022/04/27 03:59:56;;;;;;;;;;;16.10;92.30;;;;;;5052325;28;20427;-71
2022/04/27 04:02:22;;;;;;;;;;;16.00;92.50;;;;;;5052701;28;19916;-71
2022/04/27 04:04:53;;;;;;;;;;;16.00;92.60;;;;;;5053874;28;19931;-72
2022/04/27 04:07:19;;;;;;;;;;;15.90;92.60;;;;;;5053624;28;20281;-71
2022/04/27 04:09:45;;;;;;;;;;;16.00;92.60;;;;;;5052930;28;19919;-72
2022/04/27 04:12:11;;;;;;;;;;;15.90;92.70;;;;;;5054159;28;19916;-70
2022/04/27 04:14:37;;;;;;;;;;;15.80;92.80;;;;;;5053632;28;19932;-71
2022/04/27 04:17:03;;;;;;;;;;;15.80;92.80;;;;;;5054576;28;19909;-71
2022/04/27 04:19:29;;;;;;;;;;;15.80;92.80;;;;;;5054333;28;20007;-71
2022/04/27 04:21:55;;;;;;;;;;;15.70;92.90;;;;;;5054620;28;20411;-71
2022/04/27 04:24:21;;;;;;;;;;;15.60;93.00;;;;;;5054300;28;20007;-71
2022/04/27 04:29:32;;;;;;;;;;;15.60;93.10;;;;;;5054597;28;19982;-72
2022/04/27 04:31:58;;;;;;;;;;;15.60;93.10;;;;;;5052435;28;19909;-70
2022/04/27 04:34:23;;;;;;;;;;;15.60;93.10;;;;;;5052211;28;19959;-71
2022/04/27 04:36:52;;;;;;;;;;;15.60;93.20;;;;;;5052852;28;20050;-70
2022/04/27 04:39:18;;;;;;;;;;;15.60;93.10;;;;;;5054572;28;19919;-72
2022/04/27 04:41:44;;;;;;;;;;;15.70;93.10;;;;;;5053915;28;20003;-72
2022/04/27 04:44:10;;;;;;;;;;;15.70;93.00;;;;;;5054345;28;19970;-70
2022/04/27 04:46:50;;;;;;;;;;;15.70;92.90;;;;;;5053219;28;20398;-71
2022/04/27 04:49:16;;;;;;;;;;;15.80;92.90;;;;;;5053928;28;20360;-71
2022/04/27 04:51:42;;;;;;;;;;;15.80;92.90;;;;;;5054084;28;19916;-72
2022/04/27 04:54:08;;;;;;;;;;;15.90;92.80;;;;;;5053812;28;19909;-71
2022/04/27 04:56:34;;;;;;;;;;;16.00;92.50;;;;;;5053571;28;19999;-71
2022/04/27 04:58:59;;;;;;;;;;;16.20;92.30;;;;;;5053281;28;19932;-71
2022/04/27 05:01:25;;;;;;;;;;;16.30;92.20;;;;;;5053312;28;20360;-70
2022/04/27 05:03:51;;;;;;;;;;;16.40;91.90;;;;;;5053778;28;20276;-69
2022/04/27 05:06:50;;;;;;;;;;;16.50;91.70;;;;;;5053322;28;19920;-71
2022/04/27 05:09:16;;;;;;;;;;;16.60;91.60;;;;;;5053404;28;20027;-70
2022/04/27 05:11:43;;;;;;;;;;;16.70;91.50;;;;;;5053262;28;19909;-71
2022/04/27 05:14:09;;;;;;;;;;;16.90;91.30;;;;;;5053336;28;19995;-70
2022/04/27 05:16:36;;;;;;;;;;;17.30;90.80;;;;;;5053597;28;20225;-70
2022/04/27 05:19:02;;;;;;;;;;;17.80;90.10;;;;;;5033693;28;19916;-70
2022/04/27 05:21:29;;;;;;;;;;;18.30;88.80;;;;;;5052790;28;19909;-70
2022/04/27 05:23:54;;;;;;;;;;;19.00;86.40;;;;;;5053234;28;20003;-70
2022/04/27 05:26:20;;;;;;;;;;;19.40;85.70;;;;;;5053074;28;20031;-68
2022/04/27 05:34:14;;;;;;;;;;;20.70;81.00;;;;;;5053274;28;20074;-70
2022/04/27 05:36:40;;;;;;;;;;;20.80;80.50;;;;;;5051254;28;19964;-71
2022/04/27 05:39:06;;;;;;;;;;;21.00;79.90;;;;;;5052722;28;19958;-69
2022/04/27 05:41:32;;;;;;;;;;;21.00;79.90;;;;;;5052344;28;19992;-70
2022/04/27 05:43:57;;;;;;;;;;;21.30;79.20;;;;;;5051999;28;19915;-71
2022/04/27 05:46:23;;;;;;;;;;;21.60;78.00;;;;;;5051709;28;19913;-70
2022/04/27 05:48:49;;;;;;;;;;;21.90;77.90;;;;;;5052484;28;19912;-71
2022/04/27 05:51:15;;;;;;;;;;;22.00;77.30;;;;;;5052104;28;19908;-71
2022/04/27 05:53:41;;;;;;;;;;;22.30;76.70;;;;;;5050071;28;19963;-70
2022/04/27 05:56:09;;;;;;;;;;;22.90;75.80;;;;;;5052870;28;19913;-68
2022/04/27 05:58:35;;;;;;;;;;;23.50;74.60;;;;;;5052266;28;19916;-69
2022/04/27 06:01:03;;;;;;;;;;;24.20;72.40;;;;;;5051794;28;19912;-68
2022/04/27 06:03:29;;;;;;;;;;;24.40;72.00;;;;;;5049118;28;19909;-67
2022/04/27 06:05:55;;;;;;;;;;;24.60;71.70;;;;;;5049787;28;19913;-67
2022/04/27 06:08:21;;;;;;;;;;;25.40;70.40;;;;;;5049889;28;19917;-71
2022/04/27 06:10:47;;;;;;;;;;;26.40;68.70;;;;;;5051186;28;19913;-67
2022/04/27 06:13:13;;;;;;;;;;;27.50;66.90;;;;;;5050538;28;19916;-72
2022/04/27 06:15:40;;;;;;;;;;;28.90;64.10;;;;;;5050584;28;20003;-70
2022/04/27 06:18:06;;;;;;;;;;;29.70;62.10;;;;;;5051819;28;20066;-71
2022/04/27 06:20:32;;;;;;;;;;;30.40;60.60;;;;;;5051791;28;19998;-71
2022/04/27 06:22:58;;;;;;;;;;;31.30;59.40;;;;;;5052375;28;20309;-71
2022/04/27 06:25:25;;;;;;;;;;;31.90;58.70;;;;;;5051716;28;19956;-70
2022/04/27 06:27:51;;;;;;;;;;;31.90;57.90;;;;;;5052099;28;19967;-69
2022/04/27 06:30:18;;;;;;;;;;;31.50;58.50;;;;;;5052441;28;19915;-68
2022/04/27 06:32:44;;;;;;;;;;;31.00;58.60;;;;;;5052282;28;19970;-70
2022/04/27 06:35:13;;;;;;;;;;;31.30;59.10;;;;;;5052124;28;19924;-70
2022/04/27 06:37:39;;;;;;;;;;;31.20;58.60;;;;;;5052318;28;20019;-71
2022/04/27 06:40:14;;;;;;;;;;;31.10;59.00;;;;;;5052252;28;19956;-71
2022/04/27 06:42:43;;;;;;;;;;;32.20;58.60;;;;;;5052063;28;19909;-70
2022/04/27 06:45:18;;;;;;;;;;;32.30;57.00;;;;;;5052053;28;20306;-71
2022/04/27 06:47:44;;;;;;;;;;;32.80;57.00;;;;;;5052596;28;19953;-70
2022/04/27 06:50:12;;;;;;;;;;;33.90;55.30;;;;;;5052047;28;19959;-70
2022/04/27 06:52:41;;;;;;;;;;;33.90;55.00;;;;;;5052012;28;19973;-72
2022/04/27 06:55:19;;;;;;;;;;;34.70;54.50;;;;;;5051965;28;20356;-71
2022/04/27 06:57:45;;;;;;;;;;;35.40;52.60;;;;;;5054046;28;19988;-71
2022/04/27 07:00:12;;;;;;;;;;;35.00;52.30;;;;;;5054871;28;20308;-70
2022/04/27 07:02:41;;;;;;;;;;;34.00;53.90;;;;;;5055756;28;19952;-71
2022/04/27 07:05:09;;;;;;;;;;;33.50;55.10;;;;;;5055463;28;19932;-71
2022/04/27 07:07:51;;;;;;;;;;;33.30;56.10;;;;;;5055463;28;20369;-71
2022/04/27 07:10:19;;;;;;;;;;;34.50;55.80;;;;;;5055890;28;19909;-71
2022/04/27 07:12:46;;;;;;;;;;;35.70;54.40;;;;;;5055347;28;20275;-69
2022/04/27 07:15:11;;;;;;;;;;;36.00;53.10;;;;;;5055077;28;20003;-71
2022/04/27 07:17:37;;;;;;;;;;;36.00;53.00;;;;;;5055687;28;19951;-70
2022/04/27 07:20:03;;;;;;;;;;;34.90;51.60;;;;;;5054797;28;20218;-71
2022/04/27 07:22:29;;;;;;;;;;;34.20;53.50;;;;;;5054703;28;20388;-70
2022/04/27 07:24:55;;;;;;;;;;;33.30;53.50;;;;;;5054496;28;19972;-71
2022/04/27 07:27:21;;;;;;;;;;;32.40;55.90;;;;;;5054826;28;20395;-71
2022/04/27 07:29:47;;;;;;;;;;;31.60;56.90;;;;;;5055299;28;19986;-70
2022/04/27 07:32:13;;;;;;;;;;;30.80;57.60;;;;;;5053750;28;20004;-70
2022/04/27 07:34:38;;;;;;;;;;;30.20;58.90;;;;;;5052644;28;19973;-71
2022/04/27 07:40:11;;;;;;;;;;;29.50;60.00;;;;;;5054482;28;19916;-70
2022/04/27 07:42:37;;;;;;;;;;;28.90;60.50;;;;;;5054470;28;19940;-70
2022/04/27 07:45:04;;;;;;;;;;;29.20;61.80;;;;;;5054627;28;19921;-71
2022/04/27 07:47:37;;;;;;;;;;;29.40;61.40;;;;;;5054013;28;19917;-70
2022/04/27 07:50:05;;;;;;;;;;;29.50;61.30;;;;;;5054023;28;20297;-69
2022/04/27 07:52:31;;;;;;;;;;;29.50;60.70;;;;;;5052950;28;19998;-69
2022/04/27 07:54:57;;;;;;;;;;;29.20;60.40;;;;;;5053344;28;20361;-69
2022/04/27 07:57:22;;;;;;;;;;;28.90;61.20;;;;;;5053173;28;19909;-70
2022/04/27 07:59:48;;;;;;;;;;;28.50;62.50;;;;;;5053192;28;19913;-71
2022/04/27 08:02:14;;;;;;;;;;;28.60;62.40;;;;;;5052944;28;20353;-71
2022/04/27 08:04:52;;;;;;;;;;;28.80;62.50;;;;;;5051496;28;19909;-71
2022/04/27 08:07:52;;;;;;;;;;;28.80;62.60;;;;;;5052713;28;19916;-71
2022/04/27 08:10:19;;;;;;;;;;;28.50;62.40;;;;;;5053074;28;19909;-70
2022/04/27 08:12:49;;;;;;;;;;;28.90;62.40;;;;;;5052652;28;19909;-70
2022/04/27 08:15:52;;;;;;;;;;;29.00;62.20;;;;;;5053143;28;19920;-71
2022/04/27 08:18:19;;;;;;;;;;;28.70;62.40;;;;;;5054253;28;19919;-72
2022/04/27 08:23:32;;;;;;;;;;;28.50;63.20;;;;;;5054364;28;19920;-71
2022/04/27 08:25:59;;;;;;;;;;;27.60;65.00;;;;;;5053802;28;19953;-71
2022/04/27 08:28:25;;;;;;;;;;;28.00;65.10;;;;;;5054214;28;19913;-71
2022/04/27 08:30:51;;;;;;;;;;;28.10;64.80;;;;;;5053807;28;20039;-70
2022/04/27 08:33:19;;;;;;;;;;;28.40;63.90;;;;;;5053724;28;19959;-70
2022/04/27 08:35:45;;;;;;;;;;;28.30;64.10;;;;;;5043731;28;20382;-71
2022/04/27 08:38:11;;;;;;;;;;;28.40;63.30;;;;;;5053733;28;20007;-71
2022/04/27 08:40:38;;;;;;;;;;;28.50;64.00;;;;;;5054205;28;19909;-72
2022/04/27 08:43:05;;;;;;;;;;;28.50;63.50;;;;;;5053719;28;19909;-71
2022/04/27 08:45:31;;;;;;;;;;;28.40;64.10;;;;;;5053840;28;20317;-71
2022/04/27 08:47:57;;;;;;;;;;;28.20;64.30;;;;;;5053480;28;19939;-71
2022/04/27 08:50:24;;;;;;;;;;;27.80;64.90;;;;;;5053160;28;19916;-72
2022/04/27 08:52:51;;;;;;;;;;;28.00;65.40;;;;;;5053351;28;20242;-72
2022/04/27 08:55:17;;;;;;;;;;;28.10;64.90;;;;;;5053184;28;20285;-72
2022/04/27 08:57:43;;;;;;;;;;;28.10;64.10;;;;;;5053647;28;19909;-71
2022/04/27 09:03:31;;;;;;;;;;;27.80;64.10;;;;;;5052986;28;20375;-70
2022/04/27 09:06:04;;;;;;;;;;;27.40;64.10;;;;;;5052633;28;20000;-71
2022/04/27 09:08:43;;;;;;;;;;;27.50;64.80;;;;;;5053255;28;19916;-70
2022/04/27 09:11:25;;;;;;;;;;;27.50;64.70;;;;;;5052919;28;19952;-73
2022/04/27 09:13:52;;;;;;;;;;;27.50;64.70;;;;;;5053021;28;19921;-75
2022/04/27 09:16:20;;;;;;;;;;;27.30;64.90;;;;;;5053028;28;19909;-73
2022/04/27 09:24:52;;;;;;;;;;;26.30;66.80;;;;;;5052889;28;19915;-72
2022/04/27 09:27:51;;;;;;;;;;;26.40;65.00;;;;;;5034495;28;19916;-72
2022/04/27 09:30:25;;;;;;;;;;;26.60;64.40;;;;;;5052557;28;19935;-72
2022/04/27 09:32:51;;;;;;;;;;;26.10;64.30;;;;;;5052770;28;20246;-72
2022/04/27 09:35:33;;;;;;;;;;;26.10;63.90;;;;;;5052272;28;20261;-72
2022/04/27 09:38:13;;;;;;;;;;;26.10;63.90;;;;;;5052321;28;19920;-72
2022/04/27 09:40:56;;;;;;;;;;;26.30;63.20;;;;;;5052324;28;19908;-73
2022/04/27 09:43:50;;;;;;;;;;;26.10;62.90;;;;;;5034312;28;19909;-73
2022/04/27 09:46:25;;;;;;;;;;;25.90;63.90;;;;;;5052820;28;19956;-73
2022/04/27 09:49:14;;;;;;;;;;;25.90;63.90;;;;;;5034599;28;20323;-71
2022/04/27 09:51:47;;;;;;;;;;;26.00;63.40;;;;;;5052778;28;19916;-73
2022/04/27 09:54:17;;;;;;;;;;;26.00;62.60;;;;;;5034594;28;19908;-72
2022/04/27 09:56:45;;;;;;;;;;;25.90;63.70;;;;;;5052474;28;19963;-72
2022/04/27 09:59:13;;;;;;;;;;;26.00;63.60;;;;;;5052185;28;19927;-72
2022/04/27 10:01:39;;;;;;;;;;;26.00;63.90;;;;;;5051517;28;20007;-73
2022/04/27 10:04:05;;;;;;;;;;;26.00;63.60;;;;;;5051258;28;20070;-73
2022/04/27 10:06:31;;;;;;;;;;;26.20;63.20;;;;;;5051092;28;19921;-72
2022/04/27 10:09:06;;;;;;;;;;;26.20;63.30;;;;;;5033104;28;19909;-72
2022/04/27 10:11:33;;;;;;;;;;;26.00;64.60;;;;;;5051182;28;20047;-74
2022/04/27 10:14:00;;;;;;;;;;;26.00;64.10;;;;;;5033294;28;20302;-73
2022/04/27 10:16:26;;;;;;;;;;;25.70;63.80;;;;;;5051945;28;19940;-73
2022/04/27 10:18:52;;;;;;;;;;;25.60;64.90;;;;;;5034129;28;19920;-73
2022/04/27 10:21:39;;;;;;;;;;;25.80;64.30;;;;;;5051262;28;20466;-71
2022/04/27 10:24:08;;;;;;;;;;;25.70;63.60;;;;;;5031680;28;19909;-72
2022/04/27 10:26:34;;;;;;;;;;;25.70;63.80;;;;;;5032194;28;19989;-72
2022/04/27 10:29:21;;;;;;;;;;;25.80;64.10;;;;;;5031739;28;19909;-71
2022/04/27 10:31:50;;;;;;;;;;;25.90;62.80;;;;;;5043331;28;19913;-72
2022/04/27 10:34:37;;;;;;;;;;;25.50;62.90;;;;;;5055373;28;20424;-72
2022/04/27 10:37:03;;;;;;;;;;;25.50;63.40;;;;;;5055230;28;19937;-72
2022/04/27 10:39:31;;;;;;;;;;;25.70;63.20;;;;;;5055311;28;19924;-71
2022/04/27 10:42:03;;;;;;;;;;;25.70;63.40;;;;;;5055429;28;19957;-72
2022/04/27 10:44:47;;;;;;;;;;;25.80;62.70;;;;;;5055406;28;19916;-72
2022/04/27 10:47:44;;;;;;;;;;;25.80;62.00;;;;;;5053453;28;19994;-71
2022/04/27 10:50:10;;;;;;;;;;;25.80;62.00;;;;;;5053468;28;19940;-71
2022/04/27 10:52:43;;;;;;;;;;;26.10;61.40;;;;;;5054186;28;19909;-71
2022/04/27 10:55:28;;;;;;;;;;;25.90;61.80;;;;;;5055398;28;19909;-70
2022/04/27 10:58:14;;;;;;;;;;;26.00;62.00;;;;;;5053146;28;19926;-71
2022/04/27 11:01:01;;;;;;;;;;;26.30;61.20;;;;;;5054035;28;20003;-71
2022/04/27 11:03:36;;;;;;;;;;;26.30;61.70;;;;;;5054551;28;19909;-72
2022/04/27 11:06:03;;;;;;;;;;;26.20;61.20;;;;;;5054766;28;20352;-71
2022/04/27 11:08:47;;;;;;;;;;;26.20;61.10;;;;;;5054762;28;19919;-71
2022/04/27 11:11:15;;;;;;;;;;;26.30;62.10;;;;;;5054285;28;19959;-72
2022/04/27 11:13:41;;;;;;;;;;;26.40;60.40;;;;;;5053611;28;20242;-70
2022/04/27 11:16:11;;;;;;;;;;;26.20;60.70;;;;;;5053606;28;20008;-71
2022/04/27 11:18:55;;;;;;;;;;;26.30;61.50;;;;;;5054378;28;20015;-72
2022/04/27 11:21:22;;;;;;;;;;;26.20;62.50;;;;;;5055283;28;20019;-70
2022/04/27 11:23:48;;;;;;;;;;;26.40;60.20;;;;;;5055001;28;20083;-71
2022/04/27 11:26:14;;;;;;;;;;;26.20;60.40;;;;;;5054933;28;19954;-72
2022/04/27 11:28:44;;;;;;;;;;;26.20;61.50;;;;;;5054874;28;20004;-70
2022/04/27 11:31:10;;;;;;;;;;;26.20;60.60;;;;;;5054808;28;19969;-72
2022/04/27 11:33:40;;;;;;;;;;;26.50;60.20;;;;;;5054764;28;19912;-70
2022/04/27 11:36:22;;;;;;;;;;;26.50;59.60;;;;;;5054650;28;20372;-72
2022/04/27 11:38:48;;;;;;;;;;;26.60;59.40;;;;;;5055065;28;19916;-71
2022/04/27 11:41:15;;;;;;;;;;;26.80;59.80;;;;;;5054562;28;19920;-70
2022/04/27 11:43:40;;;;;;;;;;;26.70;61.00;;;;;;5054268;28;19909;-70
2022/04/27 11:46:10;;;;;;;;;;;26.40;61.50;;;;;;5054789;28;19912;-70
2022/04/27 11:48:36;;;;;;;;;;;26.30;61.80;;;;;;5052681;28;19931;-71
2022/04/27 11:51:03;;;;;;;;;;;26.40;62.10;;;;;;5054294;28;19913;-70
2022/04/27 11:53:48;;;;;;;;;;;26.50;61.30;;;;;;5053904;28;19916;-71
2022/04/27 11:56:17;;;;;;;;;;;26.60;61.70;;;;;;5053740;28;20011;-71
2022/04/27 11:58:46;;;;;;;;;;;26.50;60.10;;;;;;5053855;28;20008;-71
2022/04/27 12:01:22;;;;;;;;;;;26.30;61.50;;;;;;5054647;28;20015;-70
2022/04/27 12:03:51;;;;;;;;;;;26.40;60.60;;;;;;5054449;28;19912;-71
2022/04/27 12:06:21;;;;;;;;;;;26.40;60.70;;;;;;5052799;28;19952;-70
2022/04/27 12:08:47;;;;;;;;;;;26.30;60.50;;;;;;5054270;28;19928;-71
2022/04/27 12:11:25;;;;;;;;;;;26.30;60.70;;;;;;5054256;28;19909;-72
2022/04/27 12:13:55;;;;;;;;;;;26.30;62.00;;;;;;5054401;28;19916;-71
2022/04/27 12:16:21;;;;;;;;;;;26.50;61.70;;;;;;5054408;28;19908;-71
2022/04/27 12:18:50;;;;;;;;;;;26.30;58.90;;;;;;5054708;28;20336;-71
2022/04/27 12:21:25;;;;;;;;;;;26.00;58.90;;;;;;5054908;28;20336;-72
2022/04/27 12:23:51;;;;;;;;;;;26.10;60.10;;;;;;5054421;28;20277;-72
2022/04/27 12:26:20;;;;;;;;;;;26.10;59.80;;;;;;5054513;28;19909;-72
2022/04/27 12:28:47;;;;;;;;;;;26.40;58.50;;;;;;5054703;28;19967;-73
2022/04/27 12:31:32;;;;;;;;;;;26.30;59.00;;;;;;5054570;28;20395;-72
2022/04/27 12:33:59;;;;;;;;;;;26.30;58.60;;;;;;5054555;28;19996;-71
2022/04/27 12:39:20;;;;;;;;;;;26.30;56.90;;;;;;5054987;28;20003;-72
2022/04/27 12:41:47;;;;;;;;;;;25.80;58.40;;;;;;5054673;28;19917;-72
2022/04/27 12:44:14;;;;;;;;;;;26.00;59.20;;;;;;5054437;28;19963;-73
2022/04/27 12:46:58;;;;;;;;;;;26.00;59.60;;;;;;5054588;28;19974;-72
2022/04/27 12:49:25;;;;;;;;;;;26.10;58.70;;;;;;5053861;28;19944;-71
2022/04/27 12:51:54;;;;;;;;;;;26.50;58.00;;;;;;5052904;28;20402;-73
2022/04/27 12:54:31;;;;;;;;;;;26.40;58.10;;;;;;5052922;28;19916;-73
2022/04/27 12:57:00;;;;;;;;;;;26.20;57.00;;;;;;5053728;28;20430;-72
2022/04/27 12:59:25;;;;;;;;;;;26.00;56.50;;;;;;5053480;28;19919;-73
2022/04/27 13:01:58;;;;;;;;;;;25.70;59.20;;;;;;5053365;28;19913;-72
2022/04/27 13:04:24;;;;;;;;;;;25.50;58.10;;;;;;5053661;28;20371;-71
2022/04/27 13:06:51;;;;;;;;;;;25.30;58.20;;;;;;5053870;28;20058;-72
2022/04/27 13:12:01;;;;;;;;;;;25.60;58.80;;;;;;5053988;28;20418;-72
2022/04/27 13:14:27;;;;;;;;;;;25.90;59.40;;;;;;5054048;28;19909;-73
2022/04/27 13:16:56;;;;;;;;;;;26.00;59.90;;;;;;5053745;28;20271;-72
2022/04/27 13:19:23;;;;;;;;;;;26.00;59.80;;;;;;5054157;28;20026;-71
2022/04/27 13:21:49;;;;;;;;;;;25.90;59.60;;;;;;5053917;28;19916;-71
2022/04/27 13:24:15;;;;;;;;;;;25.90;59.00;;;;;;5054145;28;19963;-72
2022/04/27 13:26:41;;;;;;;;;;;25.80;59.80;;;;;;5053458;28;19917;-71
2022/04/27 13:29:07;;;;;;;;;;;25.80;59.50;;;;;;5053381;28;19916;-71
2022/04/27 13:31:33;;;;;;;;;;;26.00;59.90;;;;;;5052235;28;19909;-70
2022/04/27 13:33:59;;;;;;;;;;;26.10;59.50;;;;;;5053890;28;20282;-71
2022/04/27 13:36:25;;;;;;;;;;;26.10;59.40;;;;;;5053158;28;19921;-72
2022/04/27 13:38:52;;;;;;;;;;;26.30;59.80;;;;;;5053782;28;19920;-72
2022/04/27 13:41:17;;;;;;;;;;;26.40;58.90;;;;;;5053295;28;19909;-72
2022/04/27 13:43:43;;;;;;;;;;;26.50;58.20;;;;;;5053116;28;20415;-71
2022/04/27 13:46:09;;;;;;;;;;;26.20;57.50;;;;;;5052420;28;20277;-75
2022/04/27 13:48:35;;;;;;;;;;;25.90;57.70;;;;;;5052986;28;19912;-71
2022/04/27 13:51:01;;;;;;;;;;;25.80;58.60;;;;;;5053057;28;20412;-71
2022/04/27 13:53:28;;;;;;;;;;;25.70;58.50;;;;;;5051402;28;19952;-71
2022/04/27 13:55:55;;;;;;;;;;;25.80;58.70;;;;;;5052702;28;20006;-71
2022/04/27 13:58:21;;;;;;;;;;;25.90;58.10;;;;;;5052488;28;20025;-71
2022/04/27 14:00:48;;;;;;;;;;;26.00;58.10;;;;;;5052728;28;20356;-70
2022/04/27 14:03:17;;;;;;;;;;;26.00;57.70;;;;;;5052437;28;20280;-70
2022/04/27 14:05:44;;;;;;;;;;;26.10;57.30;;;;;;5053367;28;19909;-70
2022/04/27 14:08:10;;;;;;;;;;;26.20;57.20;;;;;;5056682;28;19939;-70
2022/04/27 14:10:36;;;;;;;;;;;26.20;57.10;;;;;;5055140;28;19923;-71
2022/04/27 14:13:14;;;;;;;;;;;26.00;57.30;;;;;;5056511;28;19999;-70
2022/04/27 14:18:28;;;;;;;;;;;26.30;57.50;;;;;;5056701;28;19916;-71
2022/04/27 14:20:54;;;;;;;;;;;26.20;57.30;;;;;;5056676;28;20375;-71
2022/04/27 14:23:22;;;;;;;;;;;26.00;57.30;;;;;;5056676;28;19916;-70
2022/04/27 14:25:48;;;;;;;;;;;26.10;57.80;;;;;;5056434;28;19908;-70
2022/04/27 14:28:14;;;;;;;;;;;26.20;57.40;;;;;;5055360;28;19920;-71
2022/04/27 14:30:40;;;;;;;;;;;26.50;57.40;;;;;;5056487;28;19909;-71
2022/04/27 14:33:08;;;;;;;;;;;26.60;57.00;;;;;;5056360;28;19908;-71
2022/04/27 14:35:35;;;;;;;;;;;26.50;56.20;;;;;;5056422;28;19916;-71
2022/04/27 14:38:01;;;;;;;;;;;26.50;56.70;;;;;;5056526;28;19917;-71
2022/04/27 14:40:27;;;;;;;;;;;26.50;56.70;;;;;;5054773;28;19915;-72
2022/04/27 14:42:53;;;;;;;;;;;26.30;56.80;;;;;;5056263;28;20288;-70
2022/04/27 14:45:19;;;;;;;;;;;26.10;57.80;;;;;;5055910;28;19994;-71
2022/04/27 14:47:45;;;;;;;;;;;26.10;57.80;;;;;;5055993;28;19917;-72
2022/04/27 14:50:11;;;;;;;;;;;26.00;57.50;;;;;;5055253;28;19916;-72
2022/04/27 14:52:37;;;;;;;;;;;25.90;58.10;;;;;;5055030;28;20419;-70
2022/04/27 14:55:04;;;;;;;;;;;25.80;58.50;;;;;;5054739;28;20368;-71
2022/04/27 14:57:30;;;;;;;;;;;25.90;58.70;;;;;;5054937;28;19909;-71
2022/04/27 15:00:20;;;;;;;;;;;26.00;58.80;;;;;;5054495;28;19909;-72
2022/04/27 15:02:46;;;;;;;;;;;25.90;58.40;;;;;;5055069;28;19909;-72
2022/04/27 15:05:13;;;;;;;;;;;26.10;58.80;;;;;;5054136;28;19927;-70
2022/04/27 15:07:39;;;;;;;;;;;26.10;58.20;;;;;;5054017;28;20383;-71
2022/04/27 15:10:05;;;;;;;;;;;26.10;57.60;;;;;;5053953;28;19909;-72
2022/04/27 15:12:30;;;;;;;;;;;26.10;57.30;;;;;;5052391;28;19909;-71